sensor_id;sensor_type;location;lat;lon;timestamp;temperature;humidity
25914;DHT22;13718;50.922;5.346;2023-07-29T00:01:42;20.70;99.90
25914;DHT22;13718;50.922;5.346;2023-07-29T00:04:08;20.70;99.90
25914;DHT22;13718;50.922;5.346;2023-07-29T00:06:35;20.60;99.90
25914;DHT22;13718;50.922;5.346;2023-07-29T00:09:00;20.60;99.90
25914;DHT22;13718;50.922;5.346;2023-07-29T00:11:26;20.60;99.90
25914;DHT22;13718;50.922;5.346;2023-07-29T00:13:51;20.60;99.90
25914;DHT22;13718;50.922;5.346;2023-07-29T00:16:18;20.50;99.90
25914;DHT22;13718;50.922;5.346;2023-07-29T00:18:47;20.40;99.90
25914;DHT22;13718;50.922;5.346;2023-07-29T00:21:13;20.40;99.90
25914;DHT22;13718;50.922;5.346;2023-07-29T00:23:38;20.40;99.90
25914;DHT22;13718;50.922;5.346;2023-07-29T00:26:04;20.30;99.90
25914;DHT22;13718;50.922;5.346;2023-07-29T00:28:30;20.40;99.90
25914;DHT22;13718;50.922;5.346;2023-07-29T00:30:55;20.30;99.90
25914;DHT22;13718;50.922;5.346;2023-07-29T00:33:21;20.30;99.90
25914;DHT22;13718;50.922;5.346;2023-07-29T00:35:46;20.40;99.90
25914;DHT22;13718;50.922;5.346;2023-07-29T00:38:12;20.40;99.90
25914;DHT22;13718;50.922;5.346;2023-07-29T00:40:37;20.30;99.90
25914;DHT22;13718;50.922;5.346;2023-07-29T00:43:03;20.40;99.90
25914;DHT22;13718;50.922;5.346;2023-07-29T00:45:29;20.50;99.90
25914;DHT22;13718;50.922;5.346;2023-07-29T00:47:55;20.60;99.90
25914;DHT22;13718;50.922;5.346;2023-07-29T00:50:21;20.60;99.90
25914;DHT22;13718;50.922;5.346;2023-07-29T00:52:48;20.50;99.90
25914;DHT22;13718;50.922;5.346;2023-07-29T00:55:13;20.60;99.90
25914;DHT22;13718;50.922;5.346;2023-07-29T00:57:39;20.60;99.90
25914;DHT22;13718;50.922;5.346;2023-07-29T01:00:05;20.70;99.90
25914;DHT22;13718;50.922;5.346;2023-07-29T01:02:31;20.70;99.90
25914;DHT22;13718;50.922;5.346;2023-07-29T01:04:58;20.70;99.90
25914;DHT22;13718;50.922;5.346;2023-07-29T01:07:30;20.60;99.90
25914;DHT22;13718;50.922;5.346;2023-07-29T01:10:07;20.60;99.90
25914;DHT22;13718;50.922;5.346;2023-07-29T01:12:48;20.60;99.90
25914;DHT22;13718;50.922;5.346;2023-07-29T01:15:22;20.60;99.90
25914;DHT22;13718;50.922;5.346;2023-07-29T01:17:53;20.50;99.90
25914;DHT22;13718;50.922;5.346;2023-07-29T01:20:20;20.40;99.90
25914;DHT22;13718;50.922;5.346;2023-07-29T01:22:46;20.40;99.90
25914;DHT22;13718;50.922;5.346;2023-07-29T01:25:15;20.30;99.90
25914;DHT22;13718;50.922;5.346;2023-07-29T01:27:43;20.30;99.90
25914;DHT22;13718;50.922;5.346;2023-07-29T01:30:09;20.20;99.90
25914;DHT22;13718;50.922;5.346;2023-07-29T01:35:27;20.10;99.90
25914;DHT22;13718;50.922;5.346;2023-07-29T01:37:57;20.10;99.90
25914;DHT22;13718;50.922;5.346;2023-07-29T01:40:27;20.10;99.90
25914;DHT22;13718;50.922;5.346;2023-07-29T01:42:53;20.10;99.90
25914;DHT22;13718;50.922;5.346;2023-07-29T01:45:23;20.00;99.90
25914;DHT22;13718;50.922;5.346;2023-07-29T01:47:49;20.10;99.90
25914;DHT22;13718;50.922;5.346;2023-07-29T01:50:14;20.10;99.90
25914;DHT22;13718;50.922;5.346;2023-07-29T01:52:40;20.10;99.90
25914;DHT22;13718;50.922;5.346;2023-07-29T01:55:06;20.10;99.90
25914;DHT22;13718;50.922;5.346;2023-07-29T01:57:31;20.00;99.90
25914;DHT22;13718;50.922;5.346;2023-07-29T01:59:57;20.00;99.90
25914;DHT22;13718;50.922;5.346;2023-07-29T02:02:22;19.90;99.90
25914;DHT22;13718;50.922;5.346;2023-07-29T02:04:48;19.80;99.90
25914;DHT22;13718;50.922;5.346;2023-07-29T02:07:17;19.80;99.90
25914;DHT22;13718;50.922;5.346;2023-07-29T02:09:43;19.70;99.90
25914;DHT22;13718;50.922;5.346;2023-07-29T02:12:09;19.70;99.90
25914;DHT22;13718;50.922;5.346;2023-07-29T02:14:34;19.60;99.90
25914;DHT22;13718;50.922;5.346;2023-07-29T02:17:00;19.70;99.90
25914;DHT22;13718;50.922;5.346;2023-07-29T02:19:25;19.60;99.90
25914;DHT22;13718;50.922;5.346;2023-07-29T02:21:51;19.60;99.90
25914;DHT22;13718;50.922;5.346;2023-07-29T02:24:16;19.50;99.90
25914;DHT22;13718;50.922;5.346;2023-07-29T02:26:42;19.50;99.90
25914;DHT22;13718;50.922;5.346;2023-07-29T02:29:07;19.40;99.90
25914;DHT22;13718;50.922;5.346;2023-07-29T02:31:33;19.40;99.90
25914;DHT22;13718;50.922;5.346;2023-07-29T02:34:00;19.30;99.90
25914;DHT22;13718;50.922;5.346;2023-07-29T02:36:26;19.30;99.90
25914;DHT22;13718;50.922;5.346;2023-07-29T02:38:51;19.20;99.90
25914;DHT22;13718;50.922;5.346;2023-07-29T02:41:17;19.10;99.90
25914;DHT22;13718;50.922;5.346;2023-07-29T02:43:43;19.10;99.90
25914;DHT22;13718;50.922;5.346;2023-07-29T02:46:09;19.10;99.90
25914;DHT22;13718;50.922;5.346;2023-07-29T02:48:35;19.00;99.90
25914;DHT22;13718;50.922;5.346;2023-07-29T02:51:00;19.00;99.90
25914;DHT22;13718;50.922;5.346;2023-07-29T02:53:26;18.90;99.90
25914;DHT22;13718;50.922;5.346;2023-07-29T02:55:51;19.00;99.90
25914;DHT22;13718;50.922;5.346;2023-07-29T02:58:17;19.10;99.90
25914;DHT22;13718;50.922;5.346;2023-07-29T03:00:42;19.20;99.90
25914;DHT22;13718;50.922;5.346;2023-07-29T03:03:09;19.20;99.90
25914;DHT22;13718;50.922;5.346;2023-07-29T03:05:35;19.00;99.90
25914;DHT22;13718;50.922;5.346;2023-07-29T03:08:01;18.90;99.90
25914;DHT22;13718;50.922;5.346;2023-07-29T03:10:26;18.80;99.90
25914;DHT22;13718;50.922;5.346;2023-07-29T03:12:55;18.70;99.90
25914;DHT22;13718;50.922;5.346;2023-07-29T03:15:24;18.60;99.90
25914;DHT22;13718;50.922;5.346;2023-07-29T03:17:51;18.70;99.90
25914;DHT22;13718;50.922;5.346;2023-07-29T03:20:17;18.70;99.90
25914;DHT22;13718;50.922;5.346;2023-07-29T03:22:46;18.60;99.90
25914;DHT22;13718;50.922;5.346;2023-07-29T03:25:11;18.50;99.90
25914;DHT22;13718;50.922;5.346;2023-07-29T03:27:37;18.40;99.90
25914;DHT22;13718;50.922;5.346;2023-07-29T03:30:06;18.30;99.90
25914;DHT22;13718;50.922;5.346;2023-07-29T03:32:32;18.30;99.90
25914;DHT22;13718;50.922;5.346;2023-07-29T03:34:58;18.30;99.90
25914;DHT22;13718;50.922;5.346;2023-07-29T03:37:24;18.30;99.90
25914;DHT22;13718;50.922;5.346;2023-07-29T03:39:49;18.40;99.90
25914;DHT22;13718;50.922;5.346;2023-07-29T03:42:17;18.30;99.90
25914;DHT22;13718;50.922;5.346;2023-07-29T03:44:43;18.30;99.90
25914;DHT22;13718;50.922;5.346;2023-07-29T03:47:08;18.40;99.90
25914;DHT22;13718;50.922;5.346;2023-07-29T03:49:34;18.60;99.90
25914;DHT22;13718;50.922;5.346;2023-07-29T03:51:59;18.60;99.90
25914;DHT22;13718;50.922;5.346;2023-07-29T03:54:25;18.50;99.90
25914;DHT22;13718;50.922;5.346;2023-07-29T03:56:51;18.40;99.90
25914;DHT22;13718;50.922;5.346;2023-07-29T03:59:17;18.40;99.90
25914;DHT22;13718;50.922;5.346;2023-07-29T04:01:42;18.30;99.90
25914;DHT22;13718;50.922;5.346;2023-07-29T04:04:08;18.40;99.90
25914;DHT22;13718;50.922;5.346;2023-07-29T04:06:33;18.60;99.90
25914;DHT22;13718;50.922;5.346;2023-07-29T04:08:59;18.50;99.90
25914;DHT22;13718;50.922;5.346;2023-07-29T04:11:24;18.30;99.90
25914;DHT22;13718;50.922;5.346;2023-07-29T04:13:51;18.30;99.90
25914;DHT22;13718;50.922;5.346;2023-07-29T04:16:16;18.20;99.90
25914;DHT22;13718;50.922;5.346;2023-07-29T04:18:42;18.20;99.90
25914;DHT22;13718;50.922;5.346;2023-07-29T04:21:08;18.20;99.90
25914;DHT22;13718;50.922;5.346;2023-07-29T04:23:34;18.20;99.90
25914;DHT22;13718;50.922;5.346;2023-07-29T04:26:00;18.20;99.90
25914;DHT22;13718;50.922;5.346;2023-07-29T04:28:26;18.20;99.90
25914;DHT22;13718;50.922;5.346;2023-07-29T04:30:51;18.20;99.90
25914;DHT22;13718;50.922;5.346;2023-07-29T04:33:17;18.30;99.90
25914;DHT22;13718;50.922;5.346;2023-07-29T04:35:42;18.30;99.90
25914;DHT22;13718;50.922;5.346;2023-07-29T04:38:08;18.30;99.90
25914;DHT22;13718;50.922;5.346;2023-07-29T04:40:33;18.30;99.90
25914;DHT22;13718;50.922;5.346;2023-07-29T04:43:02;18.40;99.90
25914;DHT22;13718;50.922;5.346;2023-07-29T04:45:28;18.40;99.90
25914;DHT22;13718;50.922;5.346;2023-07-29T04:47:55;18.40;99.90
25914;DHT22;13718;50.922;5.346;2023-07-29T04:50:20;18.40;99.90
25914;DHT22;13718;50.922;5.346;2023-07-29T04:52:46;18.40;99.90
25914;DHT22;13718;50.922;5.346;2023-07-29T04:55:11;18.40;99.90
25914;DHT22;13718;50.922;5.346;2023-07-29T04:57:37;18.50;99.90
25914;DHT22;13718;50.922;5.346;2023-07-29T05:00:03;18.50;99.90
25914;DHT22;13718;50.922;5.346;2023-07-29T05:02:29;18.50;99.90
25914;DHT22;13718;50.922;5.346;2023-07-29T05:04:54;18.40;99.90
25914;DHT22;13718;50.922;5.346;2023-07-29T05:07:20;18.40;99.90
25914;DHT22;13718;50.922;5.346;2023-07-29T05:09:45;18.40;99.90
25914;DHT22;13718;50.922;5.346;2023-07-29T05:12:11;18.40;99.90
25914;DHT22;13718;50.922;5.346;2023-07-29T05:14:36;18.40;99.90
25914;DHT22;13718;50.922;5.346;2023-07-29T05:17:02;18.40;99.90
25914;DHT22;13718;50.922;5.346;2023-07-29T05:19:27;18.40;99.90
25914;DHT22;13718;50.922;5.346;2023-07-29T05:21:53;18.50;99.90
25914;DHT22;13718;50.922;5.346;2023-07-29T05:24:18;18.50;99.90
25914;DHT22;13718;50.922;5.346;2023-07-29T05:26:44;18.60;99.90
25914;DHT22;13718;50.922;5.346;2023-07-29T05:29:09;18.60;99.90
25914;DHT22;13718;50.922;5.346;2023-07-29T05:31:35;18.80;99.90
25914;DHT22;13718;50.922;5.346;2023-07-29T05:34:00;18.90;99.90
25914;DHT22;13718;50.922;5.346;2023-07-29T05:36:26;19.00;99.90
25914;DHT22;13718;50.922;5.346;2023-07-29T05:38:52;19.10;99.90
25914;DHT22;13718;50.922;5.346;2023-07-29T05:41:17;19.20;99.90
25914;DHT22;13718;50.922;5.346;2023-07-29T05:43:43;19.20;99.90
25914;DHT22;13718;50.922;5.346;2023-07-29T05:46:09;19.30;99.90
25914;DHT22;13718;50.922;5.346;2023-07-29T05:48:35;19.40;99.90
25914;DHT22;13718;50.922;5.346;2023-07-29T05:51:01;19.40;99.90
25914;DHT22;13718;50.922;5.346;2023-07-29T05:53:26;19.50;99.90
25914;DHT22;13718;50.922;5.346;2023-07-29T05:55:52;19.60;99.90
25914;DHT22;13718;50.922;5.346;2023-07-29T05:58:17;19.70;99.90
25914;DHT22;13718;50.922;5.346;2023-07-29T06:00:43;19.60;99.90
25914;DHT22;13718;50.922;5.346;2023-07-29T06:03:08;19.70;99.90
25914;DHT22;13718;50.922;5.346;2023-07-29T06:05:34;19.80;99.90
25914;DHT22;13718;50.922;5.346;2023-07-29T06:07:59;19.90;99.90
25914;DHT22;13718;50.922;5.346;2023-07-29T06:10:25;20.20;99.90
25914;DHT22;13718;50.922;5.346;2023-07-29T06:12:50;20.30;99.90
25914;DHT22;13718;50.922;5.346;2023-07-29T06:15:16;20.30;99.90
25914;DHT22;13718;50.922;5.346;2023-07-29T06:17:42;20.40;99.90
25914;DHT22;13718;50.922;5.346;2023-07-29T06:20:07;20.40;99.90
25914;DHT22;13718;50.922;5.346;2023-07-29T06:22:33;20.80;99.90
25914;DHT22;13718;50.922;5.346;2023-07-29T06:24:58;21.70;99.90
25914;DHT22;13718;50.922;5.346;2023-07-29T06:27:25;22.70;99.90
25914;DHT22;13718;50.922;5.346;2023-07-29T06:29:51;22.80;99.90
25914;DHT22;13718;50.922;5.346;2023-07-29T06:32:16;22.70;99.90
25914;DHT22;13718;50.922;5.346;2023-07-29T06:34:42;22.90;99.90
25914;DHT22;13718;50.922;5.346;2023-07-29T06:37:07;23.10;99.90
25914;DHT22;13718;50.922;5.346;2023-07-29T06:39:33;23.40;99.90
25914;DHT22;13718;50.922;5.346;2023-07-29T06:41:58;24.10;99.90
25914;DHT22;13718;50.922;5.346;2023-07-29T06:44:24;24.50;99.90
25914;DHT22;13718;50.922;5.346;2023-07-29T06:46:49;25.30;99.90
25914;DHT22;13718;50.922;5.346;2023-07-29T06:49:15;25.60;99.90
25914;DHT22;13718;50.922;5.346;2023-07-29T06:51:40;25.30;99.90
25914;DHT22;13718;50.922;5.346;2023-07-29T06:54:06;25.80;99.90
25914;DHT22;13718;50.922;5.346;2023-07-29T06:56:32;26.90;99.90
25914;DHT22;13718;50.922;5.346;2023-07-29T06:58:57;27.80;99.90
25914;DHT22;13718;50.922;5.346;2023-07-29T07:01:23;28.40;99.90
25914;DHT22;13718;50.922;5.346;2023-07-29T07:03:48;28.30;99.90
25914;DHT22;13718;50.922;5.346;2023-07-29T07:06:14;27.80;99.90
25914;DHT22;13718;50.922;5.346;2023-07-29T07:08:39;27.30;99.90
25914;DHT22;13718;50.922;5.346;2023-07-29T07:11:05;26.90;99.90
25914;DHT22;13718;50.922;5.346;2023-07-29T07:13:30;26.60;99.90
25914;DHT22;13718;50.922;5.346;2023-07-29T07:15:56;26.30;99.90
25914;DHT22;13718;50.922;5.346;2023-07-29T07:18:22;26.40;99.90
25914;DHT22;13718;50.922;5.346;2023-07-29T07:20:51;26.20;99.90
25914;DHT22;13718;50.922;5.346;2023-07-29T07:23:18;25.90;99.90
25914;DHT22;13718;50.922;5.346;2023-07-29T07:25:44;25.60;99.90
25914;DHT22;13718;50.922;5.346;2023-07-29T07:28:10;25.50;99.90
25914;DHT22;13718;50.922;5.346;2023-07-29T07:30:35;25.40;99.90
25914;DHT22;13718;50.922;5.346;2023-07-29T07:33:04;25.10;99.90
25914;DHT22;13718;50.922;5.346;2023-07-29T07:35:30;24.80;99.90
25914;DHT22;13718;50.922;5.346;2023-07-29T07:37:55;24.60;99.90
25914;DHT22;13718;50.922;5.346;2023-07-29T07:40:21;24.40;99.90
25914;DHT22;13718;50.922;5.346;2023-07-29T07:42:46;24.60;99.90
25914;DHT22;13718;50.922;5.346;2023-07-29T07:45:12;24.90;99.90
25914;DHT22;13718;50.922;5.346;2023-07-29T07:47:37;25.20;99.90
25914;DHT22;13718;50.922;5.346;2023-07-29T07:50:03;25.20;99.90
25914;DHT22;13718;50.922;5.346;2023-07-29T07:52:29;25.10;99.90
25914;DHT22;13718;50.922;5.346;2023-07-29T07:54:54;25.20;99.90
25914;DHT22;13718;50.922;5.346;2023-07-29T07:57:21;25.20;99.90
25914;DHT22;13718;50.922;5.346;2023-07-29T07:59:46;25.00;99.90
25914;DHT22;13718;50.922;5.346;2023-07-29T08:02:12;24.80;99.90
25914;DHT22;13718;50.922;5.346;2023-07-29T08:04:38;24.80;99.90
25914;DHT22;13718;50.922;5.346;2023-07-29T08:07:04;25.00;99.90
25914;DHT22;13718;50.922;5.346;2023-07-29T08:09:29;25.40;99.90
25914;DHT22;13718;50.922;5.346;2023-07-29T08:11:55;26.30;99.90
25914;DHT22;13718;50.922;5.346;2023-07-29T08:14:20;26.90;99.90
25914;DHT22;13718;50.922;5.346;2023-07-29T08:16:46;26.70;99.90
25914;DHT22;13718;50.922;5.346;2023-07-29T08:19:12;26.30;99.90
25914;DHT22;13718;50.922;5.346;2023-07-29T08:21:37;26.30;99.90
25914;DHT22;13718;50.922;5.346;2023-07-29T08:24:03;26.40;99.90
25914;DHT22;13718;50.922;5.346;2023-07-29T08:26:29;26.30;99.90
25914;DHT22;13718;50.922;5.346;2023-07-29T08:28:54;26.00;99.90
25914;DHT22;13718;50.922;5.346;2023-07-29T08:31:20;25.70;99.90
25914;DHT22;13718;50.922;5.346;2023-07-29T08:33:46;25.20;99.90
25914;DHT22;13718;50.922;5.346;2023-07-29T08:36:11;25.10;99.90
25914;DHT22;13718;50.922;5.346;2023-07-29T08:38:37;24.90;99.90
25914;DHT22;13718;50.922;5.346;2023-07-29T08:43:39;24.90;99.90
25914;DHT22;13718;50.922;5.346;2023-07-29T08:46:08;25.40;99.90
25914;DHT22;13718;50.922;5.346;2023-07-29T08:48:41;26.30;99.90
25914;DHT22;13718;50.922;5.346;2023-07-29T08:51:11;27.60;99.90
25914;DHT22;13718;50.922;5.346;2023-07-29T08:53:38;28.50;99.90
25914;DHT22;13718;50.922;5.346;2023-07-29T08:56:04;29.50;99.10
25914;DHT22;13718;50.922;5.346;2023-07-29T08:58:31;30.00;97.80
25914;DHT22;13718;50.922;5.346;2023-07-29T09:00:56;29.70;97.00
25914;DHT22;13718;50.922;5.346;2023-07-29T09:03:22;29.30;96.80
25914;DHT22;13718;50.922;5.346;2023-07-29T09:05:48;28.90;97.50
25914;DHT22;13718;50.922;5.346;2023-07-29T09:08:14;28.50;97.40
25914;DHT22;13718;50.922;5.346;2023-07-29T09:10:40;28.60;97.80
25914;DHT22;13718;50.922;5.346;2023-07-29T09:13:07;29.40;97.40
25914;DHT22;13718;50.922;5.346;2023-07-29T09:15:35;30.40;96.10
25914;DHT22;13718;50.922;5.346;2023-07-29T09:18:18;30.50;95.60
25914;DHT22;13718;50.922;5.346;2023-07-29T09:20:46;30.00;95.40
25914;DHT22;13718;50.922;5.346;2023-07-29T09:23:13;29.30;96.50
25914;DHT22;13718;50.922;5.346;2023-07-29T09:25:39;28.80;97.40
25914;DHT22;13718;50.922;5.346;2023-07-29T09:28:09;28.70;97.40
25914;DHT22;13718;50.922;5.346;2023-07-29T09:30:35;28.50;97.70
25914;DHT22;13718;50.922;5.346;2023-07-29T09:33:01;28.70;97.50
25914;DHT22;13718;50.922;5.346;2023-07-29T09:35:29;28.90;96.90
25914;DHT22;13718;50.922;5.346;2023-07-29T09:37:55;28.70;95.40
25914;DHT22;13718;50.922;5.346;2023-07-29T09:40:20;28.20;96.00
25914;DHT22;13718;50.922;5.346;2023-07-29T09:42:50;27.70;96.90
25914;DHT22;13718;50.922;5.346;2023-07-29T09:45:23;27.40;97.20
25914;DHT22;13718;50.922;5.346;2023-07-29T09:47:49;27.10;97.90
25914;DHT22;13718;50.922;5.346;2023-07-29T09:50:16;27.00;98.60
25914;DHT22;13718;50.922;5.346;2023-07-29T09:52:42;27.10;98.50
25914;DHT22;13718;50.922;5.346;2023-07-29T09:55:12;27.10;98.30
25914;DHT22;13718;50.922;5.346;2023-07-29T09:57:40;27.20;98.40
25914;DHT22;13718;50.922;5.346;2023-07-29T10:00:06;27.30;98.90
25914;DHT22;13718;50.922;5.346;2023-07-29T10:02:45;27.50;99.20
25914;DHT22;13718;50.922;5.346;2023-07-29T10:05:11;27.60;98.50
25914;DHT22;13718;50.922;5.346;2023-07-29T10:07:38;27.60;98.70
25914;DHT22;13718;50.922;5.346;2023-07-29T10:10:04;27.80;98.40
25914;DHT22;13718;50.922;5.346;2023-07-29T10:12:31;27.80;98.20
25914;DHT22;13718;50.922;5.346;2023-07-29T10:15:04;28.10;98.60
25914;DHT22;13718;50.922;5.346;2023-07-29T10:17:33;28.30;98.00
25914;DHT22;13718;50.922;5.346;2023-07-29T10:19:59;28.40;97.20
25914;DHT22;13718;50.922;5.346;2023-07-29T10:22:28;28.00;97.50
25914;DHT22;13718;50.922;5.346;2023-07-29T10:24:58;28.00;98.10
25914;DHT22;13718;50.922;5.346;2023-07-29T10:27:25;27.90;98.20
25914;DHT22;13718;50.922;5.346;2023-07-29T10:29:53;27.90;98.10
25914;DHT22;13718;50.922;5.346;2023-07-29T10:32:22;27.90;98.50
25914;DHT22;13718;50.922;5.346;2023-07-29T10:34:49;27.80;98.60
25914;DHT22;13718;50.922;5.346;2023-07-29T10:37:16;27.70;98.30
25914;DHT22;13718;50.922;5.346;2023-07-29T10:39:52;27.80;98.60
25914;DHT22;13718;50.922;5.346;2023-07-29T10:42:18;28.20;97.60
25914;DHT22;13718;50.922;5.346;2023-07-29T10:44:47;28.30;97.40
25914;DHT22;13718;50.922;5.346;2023-07-29T10:49:47;27.90;97.90
25914;DHT22;13718;50.922;5.346;2023-07-29T10:52:27;27.60;98.20
25914;DHT22;13718;50.922;5.346;2023-07-29T10:54:53;27.30;98.40
25914;DHT22;13718;50.922;5.346;2023-07-29T10:57:31;27.20;99.10
25914;DHT22;13718;50.922;5.346;2023-07-29T10:59:58;27.10;98.70
25914;DHT22;13718;50.922;5.346;2023-07-29T11:02:35;27.10;98.90
25914;DHT22;13718;50.922;5.346;2023-07-29T11:05:15;27.10;98.60
25914;DHT22;13718;50.922;5.346;2023-07-29T11:07:45;26.80;99.90
25914;DHT22;13718;50.922;5.346;2023-07-29T11:10:11;26.30;99.90
25914;DHT22;13718;50.922;5.346;2023-07-29T11:12:41;25.90;99.90
25914;DHT22;13718;50.922;5.346;2023-07-29T11:17:57;25.70;99.90
25914;DHT22;13718;50.922;5.346;2023-07-29T11:20:25;25.70;99.90
25914;DHT22;13718;50.922;5.346;2023-07-29T11:22:53;25.70;99.90
25914;DHT22;13718;50.922;5.346;2023-07-29T11:25:20;25.70;99.90
25914;DHT22;13718;50.922;5.346;2023-07-29T11:27:46;25.70;99.90
25914;DHT22;13718;50.922;5.346;2023-07-29T11:30:13;25.30;99.90
25914;DHT22;13718;50.922;5.346;2023-07-29T11:32:41;24.70;99.90
25914;DHT22;13718;50.922;5.346;2023-07-29T11:35:09;24.00;99.90
25914;DHT22;13718;50.922;5.346;2023-07-29T11:37:38;23.30;99.90
25914;DHT22;13718;50.922;5.346;2023-07-29T11:40:05;22.90;99.90
25914;DHT22;13718;50.922;5.346;2023-07-29T11:42:32;22.50;99.90
25914;DHT22;13718;50.922;5.346;2023-07-29T11:44:59;22.10;99.90
25914;DHT22;13718;50.922;5.346;2023-07-29T11:47:25;22.00;99.90
25914;DHT22;13718;50.922;5.346;2023-07-29T11:49:52;21.80;99.90
25914;DHT22;13718;50.922;5.346;2023-07-29T11:52:18;21.80;99.90
25914;DHT22;13718;50.922;5.346;2023-07-29T11:54:48;21.60;99.90
25914;DHT22;13718;50.922;5.346;2023-07-29T11:57:16;21.50;99.90
25914;DHT22;13718;50.922;5.346;2023-07-29T11:59:42;21.40;99.90
25914;DHT22;13718;50.922;5.346;2023-07-29T12:02:16;21.40;99.90
25914;DHT22;13718;50.922;5.346;2023-07-29T12:04:43;21.30;99.90
25914;DHT22;13718;50.922;5.346;2023-07-29T12:07:09;21.30;99.90
25914;DHT22;13718;50.922;5.346;2023-07-29T12:09:36;21.20;99.90
25914;DHT22;13718;50.922;5.346;2023-07-29T12:12:03;21.20;99.90
25914;DHT22;13718;50.922;5.346;2023-07-29T12:14:29;21.20;99.90
25914;DHT22;13718;50.922;5.346;2023-07-29T12:16:55;21.10;99.90
25914;DHT22;13718;50.922;5.346;2023-07-29T12:19:21;21.10;99.90
25914;DHT22;13718;50.922;5.346;2023-07-29T12:21:48;21.30;99.90
25914;DHT22;13718;50.922;5.346;2023-07-29T12:24:13;21.50;99.90
25914;DHT22;13718;50.922;5.346;2023-07-29T12:26:40;21.60;99.90
25914;DHT22;13718;50.922;5.346;2023-07-29T12:29:17;21.50;99.90
25914;DHT22;13718;50.922;5.346;2023-07-29T12:31:45;21.50;99.90
25914;DHT22;13718;50.922;5.346;2023-07-29T12:34:18;21.30;99.90
25914;DHT22;13718;50.922;5.346;2023-07-29T12:36:46;21.00;99.90
25914;DHT22;13718;50.922;5.346;2023-07-29T12:39:26;21.10;99.90
25914;DHT22;13718;50.922;5.346;2023-07-29T12:41:53;20.90;99.90
25914;DHT22;13718;50.922;5.346;2023-07-29T12:44:20;20.40;99.90
25914;DHT22;13718;50.922;5.346;2023-07-29T12:46:46;20.20;99.90
25914;DHT22;13718;50.922;5.346;2023-07-29T12:49:12;20.30;99.90
25914;DHT22;13718;50.922;5.346;2023-07-29T12:51:37;20.60;99.90
25914;DHT22;13718;50.922;5.346;2023-07-29T12:54:04;20.80;99.90
25914;DHT22;13718;50.922;5.346;2023-07-29T12:56:30;20.80;99.90
25914;DHT22;13718;50.922;5.346;2023-07-29T12:58:57;20.80;99.90
25914;DHT22;13718;50.922;5.346;2023-07-29T13:01:24;20.90;99.90
25914;DHT22;13718;50.922;5.346;2023-07-29T13:03:49;21.20;99.90
25914;DHT22;13718;50.922;5.346;2023-07-29T13:06:15;21.30;99.90
25914;DHT22;13718;50.922;5.346;2023-07-29T13:08:44;21.20;99.90
25914;DHT22;13718;50.922;5.346;2023-07-29T13:11:10;21.30;99.90
25914;DHT22;13718;50.922;5.346;2023-07-29T13:13:36;21.30;99.90
25914;DHT22;13718;50.922;5.346;2023-07-29T13:16:01;21.40;99.90
25914;DHT22;13718;50.922;5.346;2023-07-29T13:18:28;21.70;99.90
25914;DHT22;13718;50.922;5.346;2023-07-29T13:20:54;21.90;99.90
25914;DHT22;13718;50.922;5.346;2023-07-29T13:23:20;22.30;99.90
25914;DHT22;13718;50.922;5.346;2023-07-29T13:25:45;22.50;99.90
25914;DHT22;13718;50.922;5.346;2023-07-29T13:28:11;22.40;99.90
25914;DHT22;13718;50.922;5.346;2023-07-29T13:30:39;22.20;99.90
25914;DHT22;13718;50.922;5.346;2023-07-29T13:33:04;22.10;99.90
25914;DHT22;13718;50.922;5.346;2023-07-29T13:35:30;22.10;99.90
25914;DHT22;13718;50.922;5.346;2023-07-29T13:37:56;22.00;99.90
25914;DHT22;13718;50.922;5.346;2023-07-29T13:40:21;21.90;99.90
25914;DHT22;13718;50.922;5.346;2023-07-29T13:42:47;21.80;99.90
25914;DHT22;13718;50.922;5.346;2023-07-29T13:45:12;21.80;99.90
25914;DHT22;13718;50.922;5.346;2023-07-29T13:47:38;21.80;99.90
25914;DHT22;13718;50.922;5.346;2023-07-29T13:50:04;21.70;99.90
25914;DHT22;13718;50.922;5.346;2023-07-29T13:52:30;21.60;99.90
25914;DHT22;13718;50.922;5.346;2023-07-29T13:54:55;21.80;99.90
25914;DHT22;13718;50.922;5.346;2023-07-29T13:57:21;22.00;99.90
25914;DHT22;13718;50.922;5.346;2023-07-29T13:59:46;22.10;99.90
25914;DHT22;13718;50.922;5.346;2023-07-29T14:02:13;22.20;99.90
25914;DHT22;13718;50.922;5.346;2023-07-29T14:04:38;22.40;99.90
25914;DHT22;13718;50.922;5.346;2023-07-29T14:07:04;22.20;99.90
25914;DHT22;13718;50.922;5.346;2023-07-29T14:09:29;22.20;99.90
25914;DHT22;13718;50.922;5.346;2023-07-29T14:11:55;22.20;99.90
25914;DHT22;13718;50.922;5.346;2023-07-29T14:14:21;22.00;99.90
25914;DHT22;13718;50.922;5.346;2023-07-29T14:16:46;21.90;99.90
25914;DHT22;13718;50.922;5.346;2023-07-29T14:19:12;21.90;99.90
25914;DHT22;13718;50.922;5.346;2023-07-29T14:21:38;22.00;99.90
25914;DHT22;13718;50.922;5.346;2023-07-29T14:24:04;22.00;99.90
25914;DHT22;13718;50.922;5.346;2023-07-29T14:26:29;22.00;99.90
25914;DHT22;13718;50.922;5.346;2023-07-29T14:28:55;22.10;99.90
25914;DHT22;13718;50.922;5.346;2023-07-29T14:31:20;22.10;99.90
25914;DHT22;13718;50.922;5.346;2023-07-29T14:33:46;22.30;99.90
25914;DHT22;13718;50.922;5.346;2023-07-29T14:36:11;22.60;99.90
25914;DHT22;13718;50.922;5.346;2023-07-29T14:38:37;22.70;99.90
25914;DHT22;13718;50.922;5.346;2023-07-29T14:41:03;22.80;99.90
25914;DHT22;13718;50.922;5.346;2023-07-29T14:43:30;22.70;99.90
25914;DHT22;13718;50.922;5.346;2023-07-29T14:45:56;22.80;99.90
25914;DHT22;13718;50.922;5.346;2023-07-29T14:48:22;22.90;99.90
25914;DHT22;13718;50.922;5.346;2023-07-29T14:50:48;22.90;99.90
25914;DHT22;13718;50.922;5.346;2023-07-29T14:53:14;22.80;99.90
25914;DHT22;13718;50.922;5.346;2023-07-29T14:55:39;22.70;99.90
25914;DHT22;13718;50.922;5.346;2023-07-29T14:58:05;22.40;99.90
25914;DHT22;13718;50.922;5.346;2023-07-29T15:00:30;22.20;99.90
25914;DHT22;13718;50.922;5.346;2023-07-29T15:02:56;22.20;99.90
25914;DHT22;13718;50.922;5.346;2023-07-29T15:05:21;22.20;99.90
25914;DHT22;13718;50.922;5.346;2023-07-29T15:07:47;22.20;99.90
25914;DHT22;13718;50.922;5.346;2023-07-29T15:10:16;22.30;99.90
25914;DHT22;13718;50.922;5.346;2023-07-29T15:12:43;22.30;99.90
25914;DHT22;13718;50.922;5.346;2023-07-29T15:15:10;22.30;99.90
25914;DHT22;13718;50.922;5.346;2023-07-29T15:17:35;22.40;99.90
25914;DHT22;13718;50.922;5.346;2023-07-29T15:20:02;22.30;99.90
25914;DHT22;13718;50.922;5.346;2023-07-29T15:22:29;22.30;99.90
25914;DHT22;13718;50.922;5.346;2023-07-29T15:24:54;22.30;99.90
25914;DHT22;13718;50.922;5.346;2023-07-29T15:27:20;22.30;99.90
25914;DHT22;13718;50.922;5.346;2023-07-29T15:29:45;22.30;99.90
25914;DHT22;13718;50.922;5.346;2023-07-29T15:32:11;22.40;99.90
25914;DHT22;13718;50.922;5.346;2023-07-29T15:34:37;22.40;99.90
25914;DHT22;13718;50.922;5.346;2023-07-29T15:37:02;22.40;99.90